Time;durP1;ratioP1;P1;durP2;ratioP2;P2;SDS_P1;SDS_P2;PMS_P1;PMS_P2;Temp;Humidity;BMP_temperature;BMP_pressure;BME280_temperature;BME280_humidity;BME280_pressure;Samples;Min_cycle;Max_cycle;Signal;HPM_P1;HPM_P2
2023/01/12 00:02:16;;;;;;;;;;;10.40;99.90;;;;;;5095466;28;19972;-78
2023/01/12 00:04:42;;;;;;;;;;;10.50;99.90;;;;;;5113959;28;19908;-78
2023/01/12 00:07:09;;;;;;;;;;;10.50;99.90;;;;;;5114187;28;19914;-78
2023/01/12 00:09:34;;;;;;;;;;;10.50;99.90;;;;;;5114595;28;20391;-79
2023/01/12 00:12:05;;;;;;;;;;;10.60;99.90;;;;;;5113862;28;19908;-80
2023/01/12 00:14:34;;;;;;;;;;;10.50;99.90;;;;;;5095973;28;19908;-78
2023/01/12 00:17:00;;;;;;;;;;;10.50;99.90;;;;;;5114164;28;20014;-78
2023/01/12 00:19:25;;;;;;;;;;;10.50;99.90;;;;;;5114008;28;19939;-78
2023/01/12 00:21:59;;;;;;;;;;;10.50;99.90;;;;;;5113754;28;20277;-79
2023/01/12 00:24:26;;;;;;;;;;;10.50;99.90;;;;;;5113893;28;19961;-78
2023/01/12 00:26:52;;;;;;;;;;;10.50;99.90;;;;;;5114104;28;19911;-78
2023/01/12 00:29:18;;;;;;;;;;;10.40;99.90;;;;;;5095545;28;19908;-77
2023/01/12 00:31:44;;;;;;;;;;;10.40;99.90;;;;;;5113371;28;19911;-80
2023/01/12 00:34:10;;;;;;;;;;;10.40;99.90;;;;;;5095225;28;19912;-80
2023/01/12 00:36:35;;;;;;;;;;;10.40;99.90;;;;;;5095191;28;20336;-80
2023/01/12 00:39:00;;;;;;;;;;;10.40;99.90;;;;;;5095160;28;19907;-81
2023/01/12 00:46:54;;;;;;;;;;;10.40;99.90;;;;;;5113227;28;19919;-80
2023/01/12 00:49:20;;;;;;;;;;;10.40;99.90;;;;;;5094977;28;19907;-80
2023/01/12 00:51:45;;;;;;;;;;;10.40;99.90;;;;;;5094927;28;20291;-80
2023/01/12 00:54:11;;;;;;;;;;;10.40;99.90;;;;;;5113116;28;20376;-80
2023/01/12 00:56:37;;;;;;;;;;;10.40;99.90;;;;;;5113362;28;19911;-79
2023/01/12 00:59:05;;;;;;;;;;;10.40;99.90;;;;;;5095112;28;19908;-80
2023/01/12 01:01:32;;;;;;;;;;;10.40;99.90;;;;;;5094693;28;20357;-80
2023/01/12 01:03:57;;;;;;;;;;;10.40;99.90;;;;;;5094722;28;19908;-80
2023/01/12 01:06:23;;;;;;;;;;;10.40;99.90;;;;;;5095168;28;19914;-80
2023/01/12 01:08:49;;;;;;;;;;;10.30;99.90;;;;;;5113086;28;19915;-80
2023/01/12 01:11:14;;;;;;;;;;;10.30;99.90;;;;;;5094519;28;20321;-80
2023/01/12 01:13:42;;;;;;;;;;;10.30;99.90;;;;;;5094843;28;19908;-80
2023/01/12 01:16:08;;;;;;;;;;;10.30;99.90;;;;;;5119681;28;19908;-80
2023/01/12 01:18:34;;;;;;;;;;;10.30;99.90;;;;;;5119958;28;19908;-80
2023/01/12 01:20:59;;;;;;;;;;;10.30;99.90;;;;;;5101165;28;20007;-80
2023/01/12 01:23:25;;;;;;;;;;;10.30;99.90;;;;;;5101578;28;19964;-80
2023/01/12 01:25:51;;;;;;;;;;;10.20;99.90;;;;;;5118951;28;19970;-80
2023/01/12 01:28:17;;;;;;;;;;;10.30;99.90;;;;;;5120738;28;19908;-80
2023/01/12 01:30:43;;;;;;;;;;;10.30;99.90;;;;;;5110004;28;20006;-80
2023/01/12 01:33:09;;;;;;;;;;;10.30;99.90;;;;;;5127279;28;20363;-80
2023/01/12 01:35:34;;;;;;;;;;;10.20;99.90;;;;;;5119647;28;19954;-80
2023/01/12 01:38:00;;;;;;;;;;;10.20;99.90;;;;;;5101479;28;19956;-80
2023/01/12 01:40:25;;;;;;;;;;;10.20;99.90;;;;;;5119638;28;20329;-80
2023/01/12 01:42:51;;;;;;;;;;;10.30;99.90;;;;;;5100915;28;19908;-80
2023/01/12 01:45:16;;;;;;;;;;;10.30;99.90;;;;;;5101323;28;19909;-80
2023/01/12 01:47:46;;;;;;;;;;;10.30;99.90;;;;;;5119586;28;19908;-80
2023/01/12 01:50:31;;;;;;;;;;;10.30;99.90;;;;;;5118077;28;20041;-80
2023/01/12 01:53:06;;;;;;;;;;;10.30;99.90;;;;;;5118419;28;19916;-79
2023/01/12 01:55:35;;;;;;;;;;;10.30;99.90;;;;;;5119489;28;20420;-80
2023/01/12 01:58:06;;;;;;;;;;;10.30;99.90;;;;;;5119453;28;20357;-80
2023/01/12 02:00:32;;;;;;;;;;;10.40;99.90;;;;;;5118015;28;19915;-80
2023/01/12 02:03:01;;;;;;;;;;;10.50;99.90;;;;;;5100742;28;19907;-80
2023/01/12 02:05:27;;;;;;;;;;;10.50;99.90;;;;;;5118048;28;20002;-80
2023/01/12 02:07:53;;;;;;;;;;;10.50;99.90;;;;;;5101001;28;19908;-80
2023/01/12 02:10:19;;;;;;;;;;;10.50;99.90;;;;;;5100920;28;19994;-80
2023/01/12 02:18:41;;;;;;;;;;;10.60;99.90;;;;;;5073677;28;19908;-80
2023/01/12 02:21:24;;;;;;;;;;;10.60;99.90;;;;;;5100666;28;19911;-80
2023/01/12 02:23:56;;;;;;;;;;;10.60;99.90;;;;;;5117793;28;19933;-80
2023/01/12 02:26:44;;;;;;;;;;;10.70;99.90;;;;;;5116341;28;20285;-80
2023/01/12 02:29:09;;;;;;;;;;;10.70;99.90;;;;;;5114628;28;19916;-79
2023/01/12 02:31:40;;;;;;;;;;;10.70;99.90;;;;;;5115897;28;19912;-80
2023/01/12 02:34:12;;;;;;;;;;;10.70;99.90;;;;;;5097326;28;19953;-80
2023/01/12 02:36:50;;;;;;;;;;;10.70;99.90;;;;;;5097595;28;19912;-80
2023/01/12 02:39:19;;;;;;;;;;;10.70;99.90;;;;;;5115792;28;19912;-80
2023/01/12 02:44:56;;;;;;;;;;;10.80;99.90;;;;;;5116094;28;20041;-80
2023/01/12 02:47:34;;;;;;;;;;;10.70;99.90;;;;;;5089067;28;19915;-79
2023/01/12 02:50:00;;;;;;;;;;;10.70;99.90;;;;;;5114312;28;20317;-80
2023/01/12 02:52:29;;;;;;;;;;;10.80;99.90;;;;;;5115003;28;19912;-80
2023/01/12 02:54:55;;;;;;;;;;;10.80;99.90;;;;;;5097115;28;19931;-80
2023/01/12 02:57:21;;;;;;;;;;;10.70;99.90;;;;;;5115456;28;19907;-80
2023/01/12 02:59:49;;;;;;;;;;;10.80;99.90;;;;;;5114133;28;20323;-80
2023/01/12 03:02:20;;;;;;;;;;;10.80;99.90;;;;;;5114887;28;20307;-80
2023/01/12 03:04:45;;;;;;;;;;;10.60;99.90;;;;;;5115332;28;19914;-78
2023/01/12 03:07:13;;;;;;;;;;;10.50;99.90;;;;;;5115219;28;20365;-80
2023/01/12 03:09:51;;;;;;;;;;;10.30;99.90;;;;;;5115091;28;19944;-81
2023/01/12 03:12:22;;;;;;;;;;;10.10;99.90;;;;;;5114860;28;19954;-80
2023/01/12 03:14:49;;;;;;;;;;;10.00;99.90;;;;;;5114968;28;19998;-80
2023/01/12 03:17:20;;;;;;;;;;;9.90;99.90;;;;;;5096688;28;19955;-79
2023/01/12 03:19:46;;;;;;;;;;;9.80;99.90;;;;;;5115283;28;19907;-79
2023/01/12 03:22:13;;;;;;;;;;;9.70;99.90;;;;;;5114624;28;19915;-80
2023/01/12 03:24:41;;;;;;;;;;;9.60;99.90;;;;;;5115082;28;19908;-80
2023/01/12 03:27:13;;;;;;;;;;;9.50;99.90;;;;;;5114585;28;19912;-79
2023/01/12 03:29:41;;;;;;;;;;;9.50;99.90;;;;;;5114695;28;19912;-80
2023/01/12 03:32:07;;;;;;;;;;;9.50;99.90;;;;;;5094774;28;20297;-79
2023/01/12 03:34:33;;;;;;;;;;;9.50;99.90;;;;;;5114553;28;19914;-79
2023/01/12 03:37:04;;;;;;;;;;;9.60;99.90;;;;;;5114579;28;20404;-79
2023/01/12 03:39:36;;;;;;;;;;;9.70;99.90;;;;;;5096272;28;19956;-80
2023/01/12 03:42:08;;;;;;;;;;;9.60;99.90;;;;;;5114335;28;19907;-80
2023/01/12 03:44:45;;;;;;;;;;;9.60;99.90;;;;;;5114544;28;19957;-79
2023/01/12 03:47:14;;;;;;;;;;;9.60;99.90;;;;;;5114646;28;20315;-79
2023/01/12 03:49:43;;;;;;;;;;;9.50;99.90;;;;;;5114359;28;19918;-79
2023/01/12 03:52:09;;;;;;;;;;;9.50;99.90;;;;;;5113873;28;19908;-79
2023/01/12 03:54:36;;;;;;;;;;;9.50;99.90;;;;;;5114281;28;19916;-79
2023/01/12 03:57:02;;;;;;;;;;;9.50;99.90;;;;;;5112934;28;20006;-79
2023/01/12 03:59:27;;;;;;;;;;;9.50;99.90;;;;;;5114194;28;19907;-79
2023/01/12 04:01:53;;;;;;;;;;;9.50;99.90;;;;;;5095652;28;19964;-79
2023/01/12 04:04:19;;;;;;;;;;;9.50;99.90;;;;;;5114019;28;20285;-80
2023/01/12 04:06:44;;;;;;;;;;;9.50;99.90;;;;;;5114108;28;19907;-80
2023/01/12 04:09:10;;;;;;;;;;;9.50;99.90;;;;;;5113888;28;19919;-79
2023/01/12 04:14:19;;;;;;;;;;;9.50;99.90;;;;;;5114212;28;20015;-80
2023/01/12 04:16:45;;;;;;;;;;;9.60;99.90;;;;;;5095476;28;19947;-79
2023/01/12 04:19:11;;;;;;;;;;;9.60;99.90;;;;;;5095551;28;20254;-80
2023/01/12 04:24:21;;;;;;;;;;;9.60;99.90;;;;;;5113899;28;19915;-80
2023/01/12 04:26:46;;;;;;;;;;;9.50;99.90;;;;;;5114167;28;19908;-80
2023/01/12 04:29:12;;;;;;;;;;;9.60;99.90;;;;;;5114048;28;19995;-79
2023/01/12 04:31:37;;;;;;;;;;;9.60;99.90;;;;;;5095114;28;19912;-80
2023/01/12 04:34:03;;;;;;;;;;;9.60;99.90;;;;;;5113797;28;20004;-80
2023/01/12 04:36:28;;;;;;;;;;;9.50;99.90;;;;;;5113545;28;20390;-80
2023/01/12 04:38:54;;;;;;;;;;;9.50;99.90;;;;;;5113552;28;19914;-80
2023/01/12 04:41:19;;;;;;;;;;;9.60;99.90;;;;;;5113167;28;20323;-80
2023/01/12 04:43:45;;;;;;;;;;;9.60;99.90;;;;;;5113578;28;20000;-80
2023/01/12 04:46:10;;;;;;;;;;;9.60;99.90;;;;;;5113629;28;19933;-80
2023/01/12 04:48:39;;;;;;;;;;;9.60;99.90;;;;;;5094765;28;19918;-79
2023/01/12 04:51:05;;;;;;;;;;;9.50;99.90;;;;;;5112983;28;19965;-80
2023/01/12 04:53:30;;;;;;;;;;;9.40;99.90;;;;;;5099098;22;19924;-82
2023/01/12 04:55:56;;;;;;;;;;;9.40;99.90;;;;;;5075217;28;19915;-82
2023/01/12 04:58:22;;;;;;;;;;;9.40;99.90;;;;;;5092339;28;20381;-81
2023/01/12 05:00:47;;;;;;;;;;;9.40;99.90;;;;;;5076721;28;20447;-82
2023/01/12 05:03:14;;;;;;;;;;;9.40;99.90;;;;;;5075993;28;19915;-82
2023/01/12 05:05:40;;;;;;;;;;;9.40;99.90;;;;;;5074699;28;19951;-82
2023/01/12 05:10:50;;;;;;;;;;;9.40;99.90;;;;;;5076893;28;19942;-81
2023/01/12 05:13:15;;;;;;;;;;;9.30;99.90;;;;;;5074401;28;20357;-82
2023/01/12 05:15:41;;;;;;;;;;;9.30;99.90;;;;;;5074993;28;19908;-82
2023/01/12 05:18:06;;;;;;;;;;;9.30;99.90;;;;;;5074651;28;19908;-82
2023/01/12 05:20:32;;;;;;;;;;;9.30;99.90;;;;;;5074765;28;19909;-82
2023/01/12 05:22:57;;;;;;;;;;;9.30;99.90;;;;;;5076916;28;20277;-83
2023/01/12 05:25:22;;;;;;;;;;;9.30;99.90;;;;;;5076943;28;19908;-81
2023/01/12 05:27:48;;;;;;;;;;;9.20;99.90;;;;;;5077344;28;19909;-82
2023/01/12 05:30:14;;;;;;;;;;;9.20;99.90;;;;;;5073244;28;20377;-82
2023/01/12 05:32:42;;;;;;;;;;;9.20;99.90;;;;;;5090417;28;19916;-82
2023/01/12 05:35:08;;;;;;;;;;;9.10;99.90;;;;;;5075615;28;19909;-83
2023/01/12 05:37:34;;;;;;;;;;;9.20;99.90;;;;;;5074769;28;20271;-83
2023/01/12 05:39:59;;;;;;;;;;;9.10;99.90;;;;;;5076340;28;19959;-83
2023/01/12 05:45:09;;;;;;;;;;;9.00;99.90;;;;;;5077550;28;19911;-82
2023/01/12 05:47:35;;;;;;;;;;;9.00;99.90;;;;;;5075326;28;19908;-83
2023/01/12 05:50:01;;;;;;;;;;;9.00;99.90;;;;;;5075888;28;20061;-82
2023/01/12 05:52:26;;;;;;;;;;;9.00;99.90;;;;;;5075093;28;20388;-81
2023/01/12 05:54:52;;;;;;;;;;;9.00;99.90;;;;;;5075273;28;20274;-82
2023/01/12 05:57:17;;;;;;;;;;;9.00;99.90;;;;;;5075841;28;19909;-82
2023/01/12 05:59:42;;;;;;;;;;;9.00;99.90;;;;;;5076491;28;19999;-83
2023/01/12 06:02:10;;;;;;;;;;;9.00;99.90;;;;;;5077195;28;19931;-82
2023/01/12 06:04:36;;;;;;;;;;;8.90;99.90;;;;;;5081142;28;19951;-82
2023/01/12 06:07:02;;;;;;;;;;;9.00;99.90;;;;;;5079241;28;19908;-82
2023/01/12 06:09:27;;;;;;;;;;;8.90;99.90;;;;;;5078602;28;20069;-82
2023/01/12 06:14:37;;;;;;;;;;;8.90;99.90;;;;;;5081135;28;19916;-82
2023/01/12 06:17:02;;;;;;;;;;;8.90;99.90;;;;;;5078020;28;20281;-82
2023/01/12 06:19:28;;;;;;;;;;;8.80;99.90;;;;;;5078476;28;19909;-82
2023/01/12 06:21:54;;;;;;;;;;;8.80;99.90;;;;;;5077883;28;19908;-83
2023/01/12 06:24:20;;;;;;;;;;;8.80;99.90;;;;;;5077970;28;19913;-82
2023/01/12 06:26:45;;;;;;;;;;;8.80;99.90;;;;;;5078174;28;20354;-82
2023/01/12 06:29:12;;;;;;;;;;;8.70;99.90;;;;;;5078442;28;19914;-83
2023/01/12 06:31:38;;;;;;;;;;;8.80;99.90;;;;;;5079662;28;20324;-82
2023/01/12 06:34:06;;;;;;;;;;;8.80;99.90;;;;;;5078101;28;19913;-82
2023/01/12 06:36:31;;;;;;;;;;;8.70;99.90;;;;;;5077584;28;20361;-82
2023/01/12 06:38:57;;;;;;;;;;;8.70;99.90;;;;;;5078594;28;19957;-82
2023/01/12 06:44:07;;;;;;;;;;;8.70;99.90;;;;;;5079538;28;19915;-82
2023/01/12 06:46:32;;;;;;;;;;;8.70;99.90;;;;;;5078219;28;19908;-83
2023/01/12 06:48:58;;;;;;;;;;;8.80;99.90;;;;;;5078054;28;19937;-83
2023/01/12 06:51:23;;;;;;;;;;;8.80;99.90;;;;;;5078470;28;20380;-82
2023/01/12 06:53:49;;;;;;;;;;;8.80;99.90;;;;;;5076799;28;20357;-82
2023/01/12 06:56:14;;;;;;;;;;;8.80;99.90;;;;;;5079300;28;19915;-82
2023/01/12 06:58:43;;;;;;;;;;;8.90;99.90;;;;;;5079747;28;19915;-82
2023/01/12 07:01:09;;;;;;;;;;;8.90;99.90;;;;;;5078133;28;19908;-82
2023/01/12 07:03:35;;;;;;;;;;;9.00;99.90;;;;;;5078437;28;19915;-83
2023/01/12 07:06:00;;;;;;;;;;;9.00;99.90;;;;;;5076651;28;19909;-82
2023/01/12 07:08:26;;;;;;;;;;;9.10;99.90;;;;;;5076692;28;20015;-83
2023/01/12 07:10:51;;;;;;;;;;;9.10;99.90;;;;;;5076635;28;19967;-82
2023/01/12 07:13:17;;;;;;;;;;;9.20;99.90;;;;;;5076345;28;19908;-83
2023/01/12 07:15:42;;;;;;;;;;;9.20;99.90;;;;;;5077744;28;19909;-83
2023/01/12 07:18:08;;;;;;;;;;;9.20;99.90;;;;;;5077575;28;20373;-83
2023/01/12 07:20:34;;;;;;;;;;;9.30;99.90;;;;;;5077692;28;19918;-82
2023/01/12 07:22:59;;;;;;;;;;;9.30;99.90;;;;;;5075660;28;19912;-82
2023/01/12 07:25:25;;;;;;;;;;;9.40;99.90;;;;;;5075992;28;19909;-82
2023/01/12 07:27:51;;;;;;;;;;;9.30;99.90;;;;;;5074657;28;20422;-82
2023/01/12 07:30:17;;;;;;;;;;;9.40;99.90;;;;;;5075796;28;19913;-82
2023/01/12 07:32:43;;;;;;;;;;;9.40;99.90;;;;;;5091842;28;20412;-82
2023/01/12 07:35:08;;;;;;;;;;;9.40;99.90;;;;;;5076939;28;19930;-83
2023/01/12 07:37:34;;;;;;;;;;;9.50;99.90;;;;;;5074762;28;19909;-82
2023/01/12 07:39:59;;;;;;;;;;;9.50;99.90;;;;;;5074128;28;19912;-83
2023/01/12 07:42:25;;;;;;;;;;;9.40;99.90;;;;;;5074345;28;20281;-83
2023/01/12 07:44:50;;;;;;;;;;;9.40;99.90;;;;;;5074165;28;19908;-83
2023/01/12 07:47:16;;;;;;;;;;;9.40;99.90;;;;;;5074795;28;19913;-83
2023/01/12 07:49:41;;;;;;;;;;;9.50;99.90;;;;;;5075178;28;20357;-83
2023/01/12 07:52:09;;;;;;;;;;;9.50;99.90;;;;;;5076550;28;19951;-83
2023/01/12 07:54:35;;;;;;;;;;;9.50;99.90;;;;;;5076745;28;20003;-84
2023/01/12 07:57:00;;;;;;;;;;;9.50;99.90;;;;;;5074457;28;19947;-82
2023/01/12 07:59:26;;;;;;;;;;;9.50;99.90;;;;;;5077568;28;19961;-82
2023/01/12 08:01:53;;;;;;;;;;;9.50;99.90;;;;;;5075011;28;19908;-82
2023/01/12 08:04:19;;;;;;;;;;;9.50;99.90;;;;;;5074704;28;19908;-82
2023/01/12 08:06:44;;;;;;;;;;;9.50;99.90;;;;;;5074175;28;19909;-83
2023/01/12 08:09:10;;;;;;;;;;;9.50;99.90;;;;;;5075893;28;20376;-83
2023/01/12 08:11:36;;;;;;;;;;;9.50;99.90;;;;;;5076025;28;19912;-82
2023/01/12 08:14:03;;;;;;;;;;;9.60;99.90;;;;;;5074145;28;19908;-83
2023/01/12 08:16:39;;;;;;;;;;;9.60;99.90;;;;;;5074172;28;20034;-83
2023/01/12 08:19:10;;;;;;;;;;;9.60;99.90;;;;;;5090887;28;19909;-83
2023/01/12 08:21:43;;;;;;;;;;;9.60;99.90;;;;;;5075565;28;20369;-82
2023/01/12 08:24:09;;;;;;;;;;;9.60;99.90;;;;;;5072962;28;20539;-83
2023/01/12 08:26:37;;;;;;;;;;;9.60;99.90;;;;;;5073927;28;19915;-83
2023/01/12 08:29:20;;;;;;;;;;;9.60;99.90;;;;;;5075724;28;20282;-82
2023/01/12 08:31:46;;;;;;;;;;;9.60;99.90;;;;;;5073197;28;19948;-83
2023/01/12 08:34:11;;;;;;;;;;;9.60;99.90;;;;;;5075008;28;19915;-82
2023/01/12 08:36:39;;;;;;;;;;;9.70;99.90;;;;;;5076637;28;20435;-82
2023/01/12 08:39:04;;;;;;;;;;;9.70;99.90;;;;;;5073964;28;19954;-83
2023/01/12 08:41:32;;;;;;;;;;;9.70;99.90;;;;;;5074370;28;19932;-82
2023/01/12 08:44:01;;;;;;;;;;;9.80;99.90;;;;;;5090543;28;20373;-82
2023/01/12 08:46:28;;;;;;;;;;;9.80;99.90;;;;;;5073372;28;19909;-83
2023/01/12 08:48:53;;;;;;;;;;;9.80;99.90;;;;;;5073368;28;19923;-83
2023/01/12 08:51:19;;;;;;;;;;;9.80;99.90;;;;;;5072660;28;20285;-83
2023/01/12 08:53:44;;;;;;;;;;;9.80;99.90;;;;;;5069609;28;19922;-82
2023/01/12 08:56:10;;;;;;;;;;;9.90;99.90;;;;;;5072328;28;19913;-82
2023/01/12 08:58:35;;;;;;;;;;;9.80;99.90;;;;;;5073506;28;19908;-83
2023/01/12 09:01:05;;;;;;;;;;;9.90;99.90;;;;;;5072642;28;19915;-83
2023/01/12 09:03:30;;;;;;;;;;;9.90;99.90;;;;;;5073290;28;19962;-83
2023/01/12 09:05:56;;;;;;;;;;;9.90;99.90;;;;;;5062958;28;19909;-83
2023/01/12 09:08:21;;;;;;;;;;;10.00;99.90;;;;;;5053012;28;19909;-83
2023/01/12 09:10:47;;;;;;;;;;;10.00;99.90;;;;;;5052188;28;20354;-83
2023/01/12 09:13:14;;;;;;;;;;;10.00;99.90;;;;;;5069807;28;19909;-83
2023/01/12 09:15:40;;;;;;;;;;;10.00;99.90;;;;;;5069444;28;19913;-82
2023/01/12 09:18:05;;;;;;;;;;;10.00;99.90;;;;;;5068831;28;19909;-83
2023/01/12 09:20:33;;;;;;;;;;;10.10;99.90;;;;;;5069133;28;19909;-82
2023/01/12 09:23:01;;;;;;;;;;;10.10;99.90;;;;;;5053823;28;20278;-83
2023/01/12 09:25:27;;;;;;;;;;;10.10;99.90;;;;;;5053820;28;20305;-83
2023/01/12 09:27:52;;;;;;;;;;;10.10;99.90;;;;;;5069522;28;19909;-82
2023/01/12 09:30:17;;;;;;;;;;;10.10;99.90;;;;;;5069970;28;19913;-82
2023/01/12 09:32:43;;;;;;;;;;;10.20;99.90;;;;;;5053482;28;19917;-83
2023/01/12 09:35:08;;;;;;;;;;;10.20;99.90;;;;;;5054900;28;19913;-81
2023/01/12 09:37:34;;;;;;;;;;;10.20;99.90;;;;;;5057363;28;19919;-82
2023/01/12 09:39:59;;;;;;;;;;;10.20;99.90;;;;;;5073323;28;20350;-82
2023/01/12 09:48:06;;;;;;;;;;;10.30;99.90;;;;;;5058178;28;19916;-82
2023/01/12 09:50:39;;;;;;;;;;;10.30;99.90;;;;;;5073599;28;19916;-82
2023/01/12 09:53:41;;;;;;;;;;;10.30;99.90;;;;;;5072183;28;19977;-82
2023/01/12 09:56:24;;;;;;;;;;;10.20;99.90;;;;;;4998457;28;20330;-82
2023/01/12 09:59:09;;;;;;;;;;;10.20;99.90;;;;;;5053794;28;19956;-82
2023/01/12 10:01:35;;;;;;;;;;;10.20;99.90;;;;;;5072540;28;19909;-82
2023/01/12 10:04:02;;;;;;;;;;;10.30;99.90;;;;;;5072442;28;19909;-83
2023/01/12 10:06:27;;;;;;;;;;;10.30;99.90;;;;;;5072299;28;19916;-81
2023/01/12 10:08:57;;;;;;;;;;;10.30;99.90;;;;;;5072456;28;20266;-82
2023/01/12 10:11:41;;;;;;;;;;;10.30;99.90;;;;;;5072062;28;19913;-82
2023/01/12 10:14:18;;;;;;;;;;;10.30;99.90;;;;;;5056737;28;19913;-82
2023/01/12 10:16:53;;;;;;;;;;;10.30;99.90;;;;;;5072263;28;19916;-82
2023/01/12 10:19:18;;;;;;;;;;;10.40;99.90;;;;;;5072094;28;19909;-82
2023/01/12 10:21:44;;;;;;;;;;;10.40;99.90;;;;;;5071858;28;20297;-82
2023/01/12 10:24:10;;;;;;;;;;;10.50;99.90;;;;;;5056732;28;20285;-82
2023/01/12 10:26:39;;;;;;;;;;;10.50;99.90;;;;;;5057025;28;19909;-82
2023/01/12 10:29:09;;;;;;;;;;;10.50;99.90;;;;;;5058032;28;19924;-82
2023/01/12 10:31:34;;;;;;;;;;;10.60;99.90;;;;;;5075986;28;19919;-86
2023/01/12 10:34:00;;;;;;;;;;;10.70;99.90;;;;;;5074861;28;19939;-85
2023/01/12 10:36:26;;;;;;;;;;;10.70;99.90;;;;;;5075762;28;20431;-85
2023/01/12 10:38:55;;;;;;;;;;;10.80;99.90;;;;;;5061058;28;19959;-83
2023/01/12 10:41:21;;;;;;;;;;;10.90;99.90;;;;;;5075328;28;19909;-82
2023/01/12 10:43:59;;;;;;;;;;;10.90;99.90;;;;;;5060384;28;19909;-82
2023/01/12 10:46:30;;;;;;;;;;;10.90;99.90;;;;;;5074594;28;19908;-82
2023/01/12 10:49:14;;;;;;;;;;;11.00;99.90;;;;;;5060022;28;19909;-82
2023/01/12 10:51:56;;;;;;;;;;;11.00;99.90;;;;;;5073938;28;19916;-82
2023/01/12 10:54:24;;;;;;;;;;;11.20;99.90;;;;;;5074116;28;19917;-83
2023/01/12 10:57:01;;;;;;;;;;;11.20;99.90;;;;;;5058426;28;20355;-83
2023/01/12 10:59:36;;;;;;;;;;;11.20;99.90;;;;;;5073962;28;19916;-83
2023/01/12 11:02:07;;;;;;;;;;;11.20;99.90;;;;;;5073332;28;20021;-83
2023/01/12 11:04:40;;;;;;;;;;;11.20;99.90;;;;;;5058179;28;19909;-83
2023/01/12 11:07:24;;;;;;;;;;;11.20;99.90;;;;;;5073605;28;19908;-83
2023/01/12 11:09:50;;;;;;;;;;;11.20;99.90;;;;;;5073131;28;19917;-85
2023/01/12 11:12:29;;;;;;;;;;;11.30;99.90;;;;;;5055496;28;19949;-84
2023/01/12 11:14:56;;;;;;;;;;;11.30;99.90;;;;;;5072451;28;19908;-85
2023/01/12 11:17:55;;;;;;;;;;;11.30;99.90;;;;;;5057170;28;19916;-83
2023/01/12 11:20:27;;;;;;;;;;;11.40;99.90;;;;;;5043747;28;19999;-83
2023/01/12 11:22:54;;;;;;;;;;;11.40;99.90;;;;;;5072130;28;19915;-84
2023/01/12 11:25:28;;;;;;;;;;;11.50;99.90;;;;;;5072349;28;20372;-83
2023/01/12 11:27:57;;;;;;;;;;;11.50;99.90;;;;;;5054604;28;19962;-83
2023/01/12 11:30:45;;;;;;;;;;;11.60;99.90;;;;;;5069749;28;20414;-82
2023/01/12 11:33:33;;;;;;;;;;;11.60;99.90;;;;;;5054078;28;20278;-82
2023/01/12 11:36:03;;;;;;;;;;;11.60;99.90;;;;;;5069868;28;19909;-82
2023/01/12 11:38:46;;;;;;;;;;;11.60;99.90;;;;;;5064092;28;19919;-83
2023/01/12 11:41:35;;;;;;;;;;;11.70;99.90;;;;;;5075198;28;19920;-84
2023/01/12 11:44:26;;;;;;;;;;;11.60;99.90;;;;;;5061793;28;19915;-85
2023/01/12 11:46:55;;;;;;;;;;;11.80;99.90;;;;;;5071654;28;19909;-80
2023/01/12 11:49:28;;;;;;;;;;;11.80;99.90;;;;;;5072807;28;19915;-83
2023/01/12 11:51:57;;;;;;;;;;;11.70;99.90;;;;;;5073395;28;19913;-81
2023/01/12 11:54:27;;;;;;;;;;;11.80;99.90;;;;;;5073637;28;19920;-82
2023/01/12 11:57:02;;;;;;;;;;;11.80;99.90;;;;;;5072449;28;19916;-82
2023/01/12 11:59:33;;;;;;;;;;;11.80;99.90;;;;;;5072467;28;20018;-82
2023/01/12 12:02:17;;;;;;;;;;;11.90;99.90;;;;;;5072253;28;19912;-83
2023/01/12 12:04:50;;;;;;;;;;;11.90;99.90;;;;;;5071958;28;20358;-83
2023/01/12 12:07:24;;;;;;;;;;;11.90;99.90;;;;;;5073582;28;19908;-82
2023/01/12 12:10:14;;;;;;;;;;;11.80;99.90;;;;;;5072355;28;20317;-81
2023/01/12 12:12:45;;;;;;;;;;;11.80;99.90;;;;;;5073405;28;20138;-83
2023/01/12 12:15:26;;;;;;;;;;;11.60;99.90;;;;;;5072001;28;19908;-82
2023/01/12 12:17:57;;;;;;;;;;;11.60;99.90;;;;;;5072072;28;19908;-82
2023/01/12 12:20:30;;;;;;;;;;;11.50;99.90;;;;;;5071926;28;20007;-82
2023/01/12 12:23:15;;;;;;;;;;;11.60;99.90;;;;;;5071854;28;19908;-82
2023/01/12 12:25:47;;;;;;;;;;;11.50;99.90;;;;;;5072566;28;19913;-82
2023/01/12 12:28:31;;;;;;;;;;;11.50;99.90;;;;;;5073967;28;19909;-82
2023/01/12 12:31:15;;;;;;;;;;;11.50;99.90;;;;;;5072145;28;19913;-83
2023/01/12 12:33:49;;;;;;;;;;;11.40;99.90;;;;;;5072698;28;19915;-82
2023/01/12 12:36:23;;;;;;;;;;;11.30;99.90;;;;;;5073860;28;19954;-83
2023/01/12 12:38:54;;;;;;;;;;;11.30;99.90;;;;;;5073071;28;19908;-82
2023/01/12 12:47:15;;;;;;;;;;;11.20;99.90;;;;;;5073034;28;20057;-80
2023/01/12 12:49:40;;;;;;;;;;;11.20;99.90;;;;;;5071884;28;19909;-83
2023/01/12 12:52:09;;;;;;;;;;;11.10;99.90;;;;;;5077538;28;20099;-84
2023/01/12 12:54:35;;;;;;;;;;;11.10;99.90;;;;;;5078386;28;19943;-83
2023/01/12 12:57:02;;;;;;;;;;;11.10;99.90;;;;;;5079240;28;19962;-84
2023/01/12 12:59:30;;;;;;;;;;;11.10;99.90;;;;;;5084251;28;19931;-83
2023/01/12 13:01:58;;;;;;;;;;;11.10;99.90;;;;;;5081941;28;19999;-83
2023/01/12 13:04:47;;;;;;;;;;;11.00;99.90;;;;;;5074240;28;19920;-84
2023/01/12 13:07:14;;;;;;;;;;;11.00;99.90;;;;;;5068265;28;19939;-83
2023/01/12 13:09:40;;;;;;;;;;;11.00;99.90;;;;;;5076101;28;20289;-83
2023/01/12 13:12:06;;;;;;;;;;;11.00;99.90;;;;;;5076504;28;19909;-84
2023/01/12 13:14:32;;;;;;;;;;;11.00;99.90;;;;;;5074883;28;19908;-83
2023/01/12 13:16:59;;;;;;;;;;;11.00;99.90;;;;;;5079984;28;19916;-85
2023/01/12 13:19:33;;;;;;;;;;;11.00;99.90;;;;;;5078603;28;19913;-84
2023/01/12 13:22:17;;;;;;;;;;;11.00;99.90;;;;;;5076536;28;19977;-84
2023/01/12 13:24:42;;;;;;;;;;;11.00;99.90;;;;;;5078617;28;20279;-83
2023/01/12 13:27:26;;;;;;;;;;;11.00;99.90;;;;;;5078587;28;19913;-82
2023/01/12 13:30:12;;;;;;;;;;;11.00;99.90;;;;;;5075990;28;19999;-83
2023/01/12 13:32:41;;;;;;;;;;;11.00;99.90;;;;;;5077702;28;19980;-81
2023/01/12 13:35:27;;;;;;;;;;;11.00;99.90;;;;;;5076650;28;20007;-82
2023/01/12 13:38:01;;;;;;;;;;;11.10;99.90;;;;;;5065140;28;20273;-83
2023/01/12 13:40:30;;;;;;;;;;;11.10;99.90;;;;;;5074683;28;19909;-83
2023/01/12 13:43:15;;;;;;;;;;;11.20;99.90;;;;;;5076012;28;19931;-83
2023/01/12 13:45:46;;;;;;;;;;;11.20;99.90;;;;;;5073687;28;20065;-82
2023/01/12 13:48:12;;;;;;;;;;;11.30;99.90;;;;;;5075686;28;19909;-84
2023/01/12 13:50:45;;;;;;;;;;;11.40;99.90;;;;;;5076298;28;19991;-84
2023/01/12 13:53:19;;;;;;;;;;;11.40;99.90;;;;;;5075786;28;19916;-83
2023/01/12 13:55:53;;;;;;;;;;;11.40;99.90;;;;;;5074088;28;20269;-82
2023/01/12 13:58:19;;;;;;;;;;;11.40;99.90;;;;;;5075398;28;19917;-83
2023/01/12 14:00:58;;;;;;;;;;;11.40;99.90;;;;;;5075393;28;19915;-83
2023/01/12 14:03:39;;;;;;;;;;;11.40;99.90;;;;;;5074559;28;19908;-84
2023/01/12 14:06:10;;;;;;;;;;;11.30;99.90;;;;;;5076098;28;20285;-84
2023/01/12 14:08:47;;;;;;;;;;;11.40;99.90;;;;;;5073691;28;19958;-84
2023/01/12 14:11:12;;;;;;;;;;;11.40;99.90;;;;;;5074327;28;20607;-82
2023/01/12 14:13:38;;;;;;;;;;;11.40;99.90;;;;;;5074870;28;19916;-83
2023/01/12 14:18:52;;;;;;;;;;;11.40;99.90;;;;;;5077561;28;19916;-84
2023/01/12 14:21:23;;;;;;;;;;;11.40;99.90;;;;;;5075955;28;19913;-83
2023/01/12 14:23:48;;;;;;;;;;;11.40;99.90;;;;;;5078420;28;20011;-83
2023/01/12 14:26:16;;;;;;;;;;;11.40;99.90;;;;;;5078252;28;20021;-84
2023/01/12 14:28:45;;;;;;;;;;;11.30;99.90;;;;;;5080641;28;19908;-83
2023/01/12 14:31:16;;;;;;;;;;;11.30;99.90;;;;;;5078924;28;20274;-83
2023/01/12 14:33:46;;;;;;;;;;;11.30;99.90;;;;;;5079983;28;20362;-83
2023/01/12 14:36:14;;;;;;;;;;;11.20;99.90;;;;;;5078367;28;19998;-83
2023/01/12 14:38:41;;;;;;;;;;;11.20;99.90;;;;;;5078088;28;20003;-82
2023/01/12 14:46:23;;;;;;;;;;;11.10;99.90;;;;;;5077004;28;19908;-83
2023/01/12 14:46:48;;;;;;;;;;;11.10;99.90;;;;;;5077454;28;19974;-83
2023/01/12 14:49:21;;;;;;;;;;;11.00;99.90;;;;;;5063050;28;19909;-81
2023/01/12 14:51:53;;;;;;;;;;;11.00;99.90;;;;;;5058702;28;19966;-84
2023/01/12 14:54:23;;;;;;;;;;;11.00;99.90;;;;;;5073557;28;20016;-83
2023/01/12 14:57:07;;;;;;;;;;;11.00;99.90;;;;;;5059001;28;20294;-82
2023/01/12 14:59:37;;;;;;;;;;;11.00;99.90;;;;;;5056552;28;19959;-83
2023/01/12 15:02:11;;;;;;;;;;;11.00;99.90;;;;;;5072664;28;19913;-83
2023/01/12 15:04:48;;;;;;;;;;;11.00;99.90;;;;;;5072122;28;19908;-83
2023/01/12 15:07:16;;;;;;;;;;;11.00;99.90;;;;;;5074253;28;20003;-85
2023/01/12 15:09:50;;;;;;;;;;;11.00;99.90;;;;;;5059112;28;19915;-84
2023/01/12 15:12:28;;;;;;;;;;;11.10;99.90;;;;;;5079248;28;19897;-82
2023/01/12 15:15:11;;;;;;;;;;;11.10;99.90;;;;;;5069879;28;19913;-85
2023/01/12 15:25:53;;;;;;;;;;;11.00;99.90;;;;;;5061387;28;19916;-84
2023/01/12 15:28:19;;;;;;;;;;;11.00;99.90;;;;;;5072519;28;19912;-83
2023/01/12 15:30:44;;;;;;;;;;;11.00;99.90;;;;;;5071395;28;19991;-83